Houston, Texas
Traffic Map
Current Weather Conditions
Houston, Texas
Broken Clouds
Broken Clouds
85°
Feels Like: 95°
Wind Chill: 85° Ceiling: 3200
Heat Index: 95° Visibility: 10mi
Dew Point: 77° Wind: 12mph
Humidity: 77% Direction: 190° (S)
Pressure: 29.88in Gusts: 17mph
Raw Report DataKIAH 231453Z 19010G15KT 10SM SCT019 BKN032 29/25 A2988 RMK AO2 SLP118 T02940250 50005
Traffic Incident Summary
Active as of:
Severity:
Category:
InformationThere was an issue retrieving the traffic information for this location. Please try a different location or try again shortly.
Advertisements